createdAt,value
2019-06-26T00:00:18.680Z,5.17
2019-06-26T00:02:47.176Z,5.22
2019-06-26T00:05:15.760Z,5.60
2019-06-26T00:07:44.306Z,5.20
2019-06-26T00:10:13.084Z,4.90
2019-06-26T00:12:41.511Z,4.80
2019-06-26T00:15:10.997Z,4.85
2019-06-26T00:17:39.421Z,5.30
2019-06-26T00:20:08.403Z,5.33
2019-06-26T00:22:36.863Z,4.90
2019-06-26T00:25:09.687Z,5.05
2019-06-26T00:27:38.127Z,5.15
2019-06-26T00:30:11.242Z,4.87
2019-06-26T00:32:39.735Z,4.55
2019-06-26T00:35:08.356Z,4.92
2019-06-26T00:37:36.782Z,4.83
2019-06-26T00:40:08.610Z,5.00
2019-06-26T00:42:37.036Z,4.95
2019-06-26T00:45:09.117Z,5.10
2019-06-26T00:47:37.559Z,5.42
2019-06-26T00:50:08.535Z,5.40
2019-06-26T00:52:37.048Z,5.45
2019-06-26T00:55:07.238Z,5.40
2019-06-26T00:57:35.800Z,5.50
2019-06-26T01:00:09.921Z,5.37
2019-06-26T01:02:38.462Z,5.10
2019-06-26T01:05:11.678Z,4.90
2019-06-26T01:07:40.328Z,4.67
2019-06-26T01:10:10.320Z,5.58
2019-06-26T01:12:38.816Z,5.70
2019-06-26T01:15:08.409Z,6.03
2019-06-26T01:17:36.846Z,6.00
2019-06-26T01:20:09.005Z,6.33
2019-06-26T01:22:37.461Z,6.45
2019-06-26T01:25:06.247Z,6.08
2019-06-26T01:27:34.664Z,6.42
2019-06-26T01:30:04.547Z,6.00
2019-06-26T01:32:32.991Z,6.10
2019-06-26T01:35:01.438Z,5.40
2019-06-26T01:37:29.954Z,5.12
2019-06-26T01:39:58.394Z,5.67
2019-06-26T01:42:26.818Z,5.85
2019-06-26T01:44:55.265Z,5.60
2019-06-26T01:47:23.691Z,6.33
2019-06-26T01:49:52.154Z,6.20
2019-06-26T01:52:20.576Z,6.90
2019-06-26T01:54:49.028Z,6.35
2019-06-26T01:57:17.448Z,6.42
2019-06-26T01:59:45.899Z,6.67
2019-06-26T02:02:14.375Z,6.17
2019-06-26T02:04:42.857Z,6.33
2019-06-26T02:07:11.285Z,5.85
2019-06-26T02:09:39.723Z,6.03
2019-06-26T02:12:08.162Z,6.53
2019-06-26T02:14:36.664Z,6.50
2019-06-26T02:17:05.131Z,6.40
2019-06-26T02:19:33.670Z,6.10
2019-06-26T02:22:02.100Z,6.55
2019-06-26T02:24:30.540Z,6.42
2019-06-26T02:26:58.965Z,5.97
2019-06-26T02:29:27.415Z,6.37
2019-06-26T02:31:55.913Z,6.35
2019-06-26T02:34:24.367Z,5.92
2019-06-26T02:36:52.798Z,5.75
2019-06-26T02:39:21.836Z,5.75
2019-06-26T02:41:50.255Z,5.80
2019-06-26T02:44:18.711Z,5.92
2019-06-26T02:46:47.147Z,6.40
2019-06-26T02:49:15.568Z,5.95
2019-06-26T02:51:44.018Z,5.85
2019-06-26T02:54:12.460Z,6.15
2019-06-26T02:56:40.888Z,6.50
2019-06-26T02:59:09.346Z,6.58
2019-06-26T03:01:37.847Z,6.50
2019-06-26T03:04:06.361Z,6.47
2019-06-26T03:06:34.804Z,6.62
2019-06-26T03:09:03.389Z,6.58
2019-06-26T03:11:31.852Z,5.92
2019-06-26T03:14:00.269Z,6.90
2019-06-26T03:16:28.710Z,6.33
2019-06-26T03:18:57.154Z,6.67
2019-06-26T03:21:25.607Z,8.03
2019-06-26T03:23:54.034Z,6.90
2019-06-26T03:26:22.485Z,7.85
2019-06-26T03:28:50.987Z,8.05
2019-06-26T03:31:19.505Z,8.53
2019-06-26T03:33:47.933Z,7.83
2019-06-26T03:39:45.413Z,7.17
2019-06-26T03:42:13.867Z,6.83
2019-06-26T03:44:42.323Z,6.67
2019-06-26T03:47:10.844Z,6.75
2019-06-26T03:49:39.296Z,7.70
2019-06-26T03:52:07.727Z,7.25
2019-06-26T03:54:36.174Z,6.83
2019-06-26T03:57:04.622Z,7.80
2019-06-26T03:59:33.036Z,7.45
2019-06-26T04:02:01.492Z,7.40
2019-06-26T04:04:29.910Z,7.60
2019-06-26T04:06:58.364Z,7.50
2019-06-26T04:09:26.827Z,7.75
2019-06-26T04:11:55.255Z,7.08
2019-06-26T04:14:23.722Z,8.48
2019-06-26T04:16:52.151Z,7.30
2019-06-26T04:19:20.598Z,7.00
2019-06-26T04:21:49.048Z,7.30
2019-06-26T04:24:17.487Z,7.30
2019-06-26T04:26:45.941Z,7.15
2019-06-26T04:29:14.364Z,7.35
2019-06-26T04:31:42.805Z,6.97
2019-06-26T04:34:11.292Z,6.95
2019-06-26T04:36:39.783Z,7.22
2019-06-26T04:39:08.928Z,7.50
2019-06-26T04:41:37.420Z,6.85
2019-06-26T04:44:05.904Z,8.10
2019-06-26T04:46:34.353Z,7.90
2019-06-26T04:49:02.787Z,7.28
2019-06-26T04:51:31.221Z,6.90
2019-06-26T04:53:59.657Z,7.60
2019-06-26T04:56:28.080Z,7.40
2019-06-26T04:58:56.523Z,8.53
2019-06-26T05:01:25.044Z,9.30
2019-06-26T05:03:53.465Z,7.75
2019-06-26T05:06:21.911Z,8.35
2019-06-26T05:08:50.366Z,7.42
2019-06-26T05:11:18.882Z,6.60
2019-06-26T05:13:47.387Z,7.40
2019-06-26T05:16:20.070Z,7.60
2019-06-26T05:18:46.021Z,7.30
2019-06-26T05:21:14.439Z,7.40
2019-06-26T05:23:42.907Z,8.10
2019-06-26T05:26:11.404Z,8.78
2019-06-26T05:28:39.827Z,9.75
2019-06-26T05:31:08.267Z,8.65
2019-06-26T05:33:36.730Z,9.78
2019-06-26T05:36:05.166Z,10.23
2019-06-26T05:38:33.608Z,10.00
2019-06-26T05:41:02.068Z,10.72
2019-06-26T05:43:30.502Z,9.58
2019-06-26T05:45:59.007Z,9.55
2019-06-26T05:48:27.428Z,9.10
2019-06-26T05:50:55.878Z,9.35
2019-06-26T05:53:24.308Z,9.45
2019-06-26T05:55:52.779Z,8.80
2019-06-26T05:58:21.230Z,10.53
2019-06-26T06:00:49.733Z,10.53
2019-06-26T06:03:18.183Z,10.25
2019-06-26T06:05:46.603Z,10.20
2019-06-26T06:08:15.061Z,9.85
2019-06-26T06:10:43.783Z,10.78
2019-06-26T06:13:12.313Z,10.82
2019-06-26T06:15:40.996Z,11.68
2019-06-26T06:18:09.449Z,10.10
2019-06-26T06:20:39.411Z,11.93
2019-06-26T06:23:08.597Z,12.95
2019-06-26T06:25:37.084Z,12.33
2019-06-26T06:28:05.611Z,13.05
2019-06-26T06:30:34.057Z,12.15
2019-06-26T06:33:02.614Z,13.08
2019-06-26T06:35:31.246Z,14.13
2019-06-26T06:37:59.703Z,12.30
2019-06-26T06:40:28.126Z,14.25
2019-06-26T06:42:56.594Z,13.20
2019-06-26T06:45:25.288Z,12.50
2019-06-26T06:47:54.111Z,13.13
2019-06-26T06:50:22.832Z,13.25
2019-06-26T06:52:51.339Z,12.35
2019-06-26T06:55:20.528Z,12.20
2019-06-26T06:57:48.951Z,13.08
2019-06-26T07:00:17.731Z,14.87
2019-06-26T07:02:46.187Z,13.90
2019-06-26T07:05:14.995Z,12.33
2019-06-26T07:07:43.423Z,12.68
2019-06-26T07:10:12.106Z,13.48
2019-06-26T07:12:40.524Z,14.38
2019-06-26T07:15:09.915Z,13.80
2019-06-26T07:17:38.351Z,14.45
2019-06-26T07:20:07.350Z,13.93
2019-06-26T07:22:35.832Z,11.38
2019-06-26T07:25:04.924Z,12.68
2019-06-26T07:27:33.356Z,12.43
2019-06-26T07:30:01.863Z,10.78
2019-06-26T07:32:30.350Z,11.48
2019-06-26T07:34:58.838Z,13.68
2019-06-26T07:37:27.288Z,13.40
2019-06-26T07:40:00.309Z,13.38
2019-06-26T07:42:25.888Z,11.85
2019-06-26T07:44:54.320Z,11.75
2019-06-26T07:47:28.222Z,12.85
2019-06-26T07:49:52.923Z,11.63
2019-06-26T07:52:21.467Z,11.65
2019-06-26T07:54:49.980Z,11.05
2019-06-26T07:57:18.406Z,11.18
2019-06-26T07:59:46.862Z,11.53
2019-06-26T08:02:15.303Z,11.75
2019-06-26T08:04:43.759Z,10.43
2019-06-26T08:07:12.204Z,9.88
2019-06-26T08:09:40.662Z,10.95
2019-06-26T08:12:09.248Z,10.65
2019-06-26T08:14:37.692Z,9.08
2019-06-26T08:17:06.092Z,9.13
2019-06-26T08:19:34.538Z,8.58
2019-06-26T08:22:02.995Z,8.60
2019-06-26T08:24:31.415Z,8.98
2019-06-26T08:26:59.937Z,7.17
2019-06-26T08:29:28.720Z,8.53
2019-06-26T08:31:57.185Z,8.63
2019-06-26T08:34:25.608Z,7.90
2019-06-26T08:36:54.062Z,9.53
2019-06-26T08:39:22.490Z,8.35
2019-06-26T08:41:50.943Z,8.28
2019-06-26T08:44:19.393Z,7.60
2019-06-26T08:46:47.844Z,7.15
2019-06-26T08:49:25.438Z,7.30
2019-06-26T08:51:46.442Z,8.18
2019-06-26T08:54:14.874Z,8.23
2019-06-26T08:56:43.393Z,7.55
2019-06-26T08:59:11.911Z,7.95
2019-06-26T09:01:40.336Z,8.63
2019-06-26T09:07:13.582Z,7.58
2019-06-26T09:09:42.031Z,8.00
2019-06-26T09:12:10.479Z,8.75
2019-06-26T09:14:38.895Z,8.53
2019-06-26T09:17:07.364Z,9.40
2019-06-26T09:19:35.779Z,9.75
2019-06-26T09:22:04.281Z,9.15
2019-06-26T09:24:32.731Z,8.55
2019-06-26T09:27:01.229Z,9.70
2019-06-26T09:29:29.675Z,9.33
2019-06-26T09:31:58.142Z,8.45
2019-06-26T09:34:26.575Z,8.78
2019-06-26T09:36:55.027Z,8.90
2019-06-26T09:39:24.023Z,8.88
2019-06-26T09:41:52.485Z,8.85
2019-06-26T09:44:20.907Z,9.08
2019-06-26T09:46:49.324Z,7.85
2019-06-26T09:49:17.770Z,7.97
2019-06-26T09:51:46.187Z,8.18
2019-06-26T09:54:14.649Z,8.30
2019-06-26T09:56:43.093Z,8.25
2019-06-26T09:59:11.584Z,8.50
2019-06-26T10:01:40.038Z,8.28
2019-06-26T10:04:08.496Z,7.87
2019-06-26T10:06:36.987Z,8.35
2019-06-26T10:09:07.856Z,8.58
2019-06-26T10:11:36.325Z,7.92
2019-06-26T10:14:05.415Z,7.25
2019-06-26T10:16:33.845Z,8.70
2019-06-26T10:19:10.321Z,7.87
2019-06-26T10:21:34.802Z,6.95
2019-06-26T10:24:03.235Z,9.68
2019-06-26T10:26:32.722Z,9.05
2019-06-26T10:29:01.504Z,8.45
2019-06-26T10:31:30.268Z,7.85
2019-06-26T10:33:59.078Z,8.65
2019-06-26T10:36:27.525Z,9.08
2019-06-26T10:38:55.955Z,8.03
2019-06-26T10:41:24.407Z,8.13
2019-06-26T10:43:52.841Z,7.78
2019-06-26T10:46:21.306Z,7.83
2019-06-26T10:48:49.744Z,7.37
2019-06-26T10:51:18.238Z,7.45
2019-06-26T10:53:46.683Z,8.33
2019-06-26T10:56:15.106Z,7.70
2019-06-26T10:58:43.552Z,7.22
2019-06-26T11:01:11.977Z,8.40
2019-06-26T11:03:40.504Z,8.55
2019-06-26T11:06:08.951Z,7.45
2019-06-26T11:08:37.376Z,8.55
2019-06-26T11:11:05.828Z,8.40
2019-06-26T11:13:34.270Z,8.05
2019-06-26T11:16:02.724Z,7.72
2019-06-26T11:18:31.255Z,9.65
2019-06-26T11:20:59.731Z,8.55
2019-06-26T11:23:28.163Z,8.45
2019-06-26T11:25:56.606Z,7.72
2019-06-26T11:28:25.020Z,8.50
2019-06-26T11:30:53.550Z,9.28
2019-06-26T11:33:22.036Z,8.63
2019-06-26T11:35:50.488Z,7.62
2019-06-26T11:38:18.999Z,10.35
2019-06-26T11:40:47.456Z,10.00
2019-06-26T11:43:15.962Z,8.65
2019-06-26T11:45:44.385Z,11.30
2019-06-26T11:48:12.867Z,10.30
2019-06-26T11:54:10.399Z,11.88
2019-06-26T11:56:38.844Z,13.70
2019-06-26T11:59:07.343Z,12.98
2019-06-26T12:01:35.857Z,12.80
2019-06-26T12:04:04.292Z,15.23
2019-06-26T12:06:32.782Z,14.30
2019-06-26T12:09:01.253Z,12.53
2019-06-26T12:11:29.705Z,15.05
2019-06-26T12:13:58.145Z,13.53
2019-06-26T12:16:26.587Z,11.33
2019-06-26T12:18:55.014Z,12.53
2019-06-26T12:21:24.305Z,12.25
2019-06-26T12:23:52.730Z,11.68
2019-06-26T12:26:21.190Z,13.78
2019-06-26T12:28:50.220Z,11.00
2019-06-26T12:31:18.803Z,10.40
2019-06-26T12:33:47.324Z,9.78
2019-06-26T12:36:15.786Z,9.48
2019-06-26T12:38:44.276Z,11.10
2019-06-26T12:41:12.735Z,10.03
2019-06-26T12:43:41.159Z,11.08
2019-06-26T12:46:09.615Z,10.15
2019-06-26T12:48:38.067Z,12.55
2019-06-26T12:51:06.527Z,12.05
2019-06-26T12:53:35.125Z,12.68
2019-06-26T12:56:03.554Z,11.38
2019-06-26T12:58:31.974Z,9.93
2019-06-26T13:01:00.415Z,9.08
2019-06-26T13:03:28.835Z,8.53
2019-06-26T13:05:57.352Z,8.20
2019-06-26T13:08:25.787Z,7.60
2019-06-26T13:10:54.299Z,6.95
2019-06-26T13:13:22.725Z,6.55
2019-06-26T13:15:51.469Z,5.62
2019-06-26T13:18:20.096Z,6.65
2019-06-26T13:23:53.215Z,5.22
2019-06-26T13:26:21.661Z,5.80
2019-06-26T13:28:50.109Z,5.50
2019-06-26T13:31:18.682Z,5.00
2019-06-26T13:33:47.240Z,5.20
2019-06-26T13:36:15.667Z,5.55
2019-06-26T13:38:44.115Z,5.28
2019-06-26T13:41:12.537Z,5.00
2019-06-26T13:43:40.979Z,5.35
2019-06-26T13:46:09.403Z,5.42
2019-06-26T13:48:37.857Z,4.97
2019-06-26T13:51:09.927Z,4.75
2019-06-26T13:53:37.082Z,5.12
2019-06-26T13:56:05.577Z,5.30
2019-06-26T13:58:34.051Z,5.67
2019-06-26T14:01:02.483Z,4.97
2019-06-26T14:03:30.920Z,5.03
2019-06-26T14:05:59.347Z,4.90
2019-06-26T14:08:27.795Z,4.97
2019-06-26T14:10:56.219Z,4.90
2019-06-26T14:13:24.651Z,5.05
2019-06-26T14:15:53.243Z,5.17
2019-06-26T14:18:21.713Z,5.30
2019-06-26T14:20:50.224Z,5.12
2019-06-26T14:23:18.670Z,5.35
2019-06-26T14:25:47.090Z,5.33
2019-06-26T14:28:15.548Z,5.08
2019-06-26T14:30:43.977Z,5.28
2019-06-26T14:33:12.395Z,4.85
2019-06-26T14:35:40.847Z,5.05
2019-06-26T14:38:09.280Z,5.58
2019-06-26T14:40:37.728Z,5.08
2019-06-26T14:43:06.149Z,5.00
2019-06-26T14:45:34.599Z,5.00
2019-06-26T14:48:03.058Z,5.30
2019-06-26T14:50:31.480Z,5.10
2019-06-26T14:52:59.954Z,6.22
2019-06-26T14:55:28.556Z,5.80
2019-06-26T14:57:57.028Z,6.42
2019-06-26T15:00:25.851Z,5.87
2019-06-26T15:02:54.277Z,6.28
2019-06-26T15:05:22.702Z,5.92
2019-06-26T15:07:51.153Z,6.40
2019-06-26T15:10:19.952Z,5.65
2019-06-26T15:12:48.832Z,6.22
2019-06-26T15:15:17.686Z,5.60
2019-06-26T15:17:46.161Z,6.05
2019-06-26T15:20:16.152Z,5.42
2019-06-26T15:22:44.608Z,4.87
2019-06-26T15:25:13.387Z,5.25
2019-06-26T15:27:41.815Z,5.12
2019-06-26T15:30:11.708Z,4.70
2019-06-26T15:32:40.160Z,5.40
2019-06-26T15:35:09.492Z,4.92
2019-06-26T15:37:37.954Z,5.42
2019-06-26T15:40:07.721Z,5.97
2019-06-26T15:42:36.183Z,5.03
2019-06-26T15:45:06.248Z,5.65
2019-06-26T15:47:34.692Z,4.67
2019-06-26T15:50:11.009Z,5.58
2019-06-26T15:52:39.614Z,4.85
2019-06-26T15:55:08.151Z,5.33
2019-06-26T15:57:36.703Z,4.87
2019-06-26T16:00:06.727Z,5.62
2019-06-26T16:02:36.755Z,5.33
2019-06-26T16:05:06.861Z,5.47
2019-06-26T16:07:35.300Z,5.50
2019-06-26T16:10:06.663Z,4.80
2019-06-26T16:12:35.088Z,4.97
2019-06-26T16:15:04.378Z,4.97
2019-06-26T16:17:37.044Z,5.55
2019-06-26T16:20:07.218Z,5.28
2019-06-26T16:22:35.734Z,5.72
2019-06-26T16:25:05.165Z,5.78
2019-06-26T16:27:33.588Z,5.20
2019-06-26T16:30:02.079Z,5.50
2019-06-26T16:32:30.532Z,5.30
2019-06-26T16:34:59.057Z,4.62
2019-06-26T16:37:27.514Z,5.12
2019-06-26T16:39:55.985Z,5.50
2019-06-26T16:42:24.429Z,5.00
2019-06-26T16:44:53.565Z,4.85
2019-06-26T16:47:22.073Z,4.83
2019-06-26T16:49:50.565Z,4.47
2019-06-26T16:52:19.010Z,4.45
2019-06-26T16:54:48.275Z,4.97
2019-06-26T16:57:16.718Z,3.95
2019-06-26T16:59:45.160Z,4.78
2019-06-26T17:02:13.616Z,4.28
2019-06-26T17:04:42.148Z,3.92
2019-06-26T17:07:10.677Z,4.37
2019-06-26T17:09:39.099Z,4.53
2019-06-26T17:12:07.568Z,4.70
2019-06-26T17:14:35.990Z,4.67
2019-06-26T17:17:04.579Z,5.72
2019-06-26T17:19:33.027Z,5.33
2019-06-26T17:22:01.449Z,4.97
2019-06-26T17:24:29.895Z,5.17
2019-06-26T17:26:59.558Z,5.12
2019-06-26T17:29:28.146Z,4.92
2019-06-26T17:31:56.576Z,5.37
2019-06-26T17:34:27.169Z,5.25
2019-06-26T17:36:55.191Z,4.58
2019-06-26T17:39:23.708Z,5.62
2019-06-26T17:41:52.144Z,4.65
2019-06-26T17:44:20.585Z,4.30
2019-06-26T17:46:49.029Z,4.40
2019-06-26T17:49:17.460Z,4.72
2019-06-26T17:51:45.909Z,4.67
2019-06-26T17:54:14.329Z,4.72
2019-06-26T17:56:42.781Z,4.95
2019-06-26T17:59:11.208Z,4.60
2019-06-26T18:01:39.658Z,4.28
2019-06-26T18:04:08.218Z,4.22
2019-06-26T18:10:07.015Z,4.62
2019-06-26T18:12:35.474Z,3.75
2019-06-26T18:15:06.222Z,4.95
2019-06-26T18:17:34.797Z,4.03
2019-06-26T18:20:04.728Z,4.37
2019-06-26T18:22:33.181Z,4.00
2019-06-26T18:25:01.638Z,3.58
2019-06-26T18:27:30.096Z,3.80
2019-06-26T18:29:58.616Z,3.55
2019-06-26T18:32:27.133Z,3.20
2019-06-26T18:34:55.603Z,3.42
2019-06-26T18:37:24.122Z,3.52
2019-06-26T18:39:52.542Z,3.15
2019-06-26T18:42:20.977Z,3.25
2019-06-26T18:44:49.436Z,3.40
2019-06-26T18:47:17.849Z,3.05
2019-06-26T18:49:46.295Z,3.52
2019-06-26T18:52:15.895Z,3.30
2019-06-26T18:54:44.362Z,3.25
2019-06-26T18:57:12.780Z,3.45
2019-06-26T18:59:42.291Z,3.30
2019-06-26T19:02:10.889Z,3.30
2019-06-26T19:04:39.333Z,3.08
2019-06-26T19:07:07.759Z,3.35
2019-06-26T19:09:36.210Z,3.55
2019-06-26T19:12:04.704Z,3.40
2019-06-26T19:14:33.151Z,3.40
2019-06-26T19:17:01.580Z,4.15
2019-06-26T19:19:30.032Z,3.80
2019-06-26T19:21:58.454Z,3.47
2019-06-26T19:24:26.892Z,3.30
2019-06-26T19:26:55.343Z,3.95
2019-06-26T19:29:23.821Z,3.60
2019-06-26T19:31:52.269Z,3.60
2019-06-26T19:34:20.687Z,3.83
2019-06-26T19:36:50.646Z,3.60
2019-06-26T19:39:20.873Z,4.37
2019-06-26T19:41:49.576Z,4.10
2019-06-26T19:44:18.032Z,3.87
2019-06-26T19:46:46.456Z,3.67
2019-06-26T19:49:14.913Z,4.15
2019-06-26T19:51:43.365Z,3.90
2019-06-26T19:54:25.951Z,3.85
2019-06-26T19:56:41.960Z,3.70
2019-06-26T19:59:10.413Z,3.60
2019-06-26T20:01:38.921Z,3.98
2019-06-26T20:04:07.332Z,3.87
2019-06-26T20:06:35.783Z,3.12
2019-06-26T20:09:06.353Z,3.00
2019-06-26T20:11:34.799Z,3.55
2019-06-26T20:14:03.384Z,3.40
2019-06-26T20:16:31.843Z,3.30
2019-06-26T20:19:00.267Z,3.50
2019-06-26T20:21:29.055Z,3.45
2019-06-26T20:23:57.512Z,3.40
2019-06-26T20:26:25.972Z,3.00
2019-06-26T20:28:54.648Z,3.77
2019-06-26T20:31:23.099Z,3.50
2019-06-26T20:33:51.548Z,3.70
2019-06-26T20:36:20.154Z,3.75
2019-06-26T20:42:17.496Z,4.00
2019-06-26T20:44:45.923Z,4.30
2019-06-26T20:47:14.448Z,4.50
2019-06-26T20:49:52.766Z,4.33
2019-06-26T20:52:13.059Z,4.47
2019-06-26T20:54:41.502Z,4.47
2019-06-26T20:57:09.962Z,3.98
2019-06-26T20:59:38.386Z,4.10
2019-06-26T21:02:07.137Z,3.45
2019-06-26T21:04:35.568Z,4.05
2019-06-26T21:07:03.994Z,3.25
2019-06-26T21:13:01.600Z,2.60
2019-06-26T21:15:30.029Z,2.58
2019-06-26T21:17:58.474Z,2.30
2019-06-26T21:20:26.940Z,2.67
2019-06-26T21:22:55.382Z,2.45
2019-06-26T21:25:23.832Z,2.52
2019-06-26T21:27:52.256Z,2.35
2019-06-26T21:30:21.212Z,3.00
2019-06-26T21:32:49.634Z,2.40
2019-06-26T21:35:18.385Z,2.80
2019-06-26T21:37:46.918Z,2.17
2019-06-26T21:40:15.417Z,2.67
2019-06-26T21:42:43.876Z,2.40
2019-06-26T21:45:12.741Z,2.60
2019-06-26T21:47:41.188Z,2.95
2019-06-26T21:50:09.780Z,2.58
2019-06-26T21:52:38.196Z,2.87
2019-06-26T21:55:06.932Z,2.52
2019-06-26T21:57:35.386Z,2.87
2019-06-26T22:00:06.724Z,2.70
2019-06-26T22:02:35.215Z,2.47
2019-06-26T22:05:05.306Z,2.50
2019-06-26T22:07:33.725Z,2.10
2019-06-26T22:10:02.352Z,2.40
2019-06-26T22:12:30.825Z,2.50
2019-06-26T22:14:59.247Z,2.15
2019-06-26T22:20:56.720Z,2.55
2019-06-26T22:23:25.172Z,3.95
2019-06-26T22:25:53.596Z,3.45
2019-06-26T22:28:22.059Z,3.20
2019-06-26T22:30:50.558Z,3.75
2019-06-26T22:33:19.177Z,3.40
2019-06-26T22:35:47.615Z,3.83
2019-06-26T22:38:16.044Z,3.50
2019-06-26T22:40:44.501Z,3.45
2019-06-26T22:43:12.923Z,3.40
2019-06-26T22:45:41.846Z,4.05
2019-06-26T22:48:10.332Z,3.98
2019-06-26T22:50:38.786Z,4.30
2019-06-26T22:53:07.255Z,5.10
2019-06-26T22:55:35.746Z,4.75
2019-06-26T22:58:04.174Z,4.53
2019-06-26T23:00:32.709Z,4.50
2019-06-26T23:03:01.201Z,4.92
2019-06-26T23:05:29.698Z,5.35
2019-06-26T23:07:58.138Z,4.78
2019-06-26T23:10:26.766Z,4.75
2019-06-26T23:12:55.469Z,5.30
2019-06-26T23:15:23.932Z,5.28
2019-06-26T23:17:52.527Z,4.80
2019-06-26T23:20:21.402Z,5.37
2019-06-26T23:22:50.200Z,5.72
2019-06-26T23:25:18.783Z,6.05
2019-06-26T23:27:47.333Z,5.30
2019-06-26T23:30:19.510Z,5.40
2019-06-26T23:32:48.024Z,5.22
2019-06-26T23:35:16.725Z,6.17
2019-06-26T23:37:45.155Z,6.55
2019-06-26T23:40:13.724Z,6.92
2019-06-26T23:42:42.190Z,5.78
2019-06-26T23:45:11.489Z,6.05
2019-06-26T23:47:40.018Z,6.75
2019-06-26T23:50:08.813Z,6.90
2019-06-26T23:52:37.241Z,8.70
2019-06-26T23:55:06.832Z,7.97
2019-06-26T23:57:35.273Z,7.55
